Time;durP1;ratioP1;P1;durP2;ratioP2;P2;SDS_P1;SDS_P2;PMS_P1;PMS_P2;Temp;Humidity;BMP_temperature;BMP_pressure;BME280_temperature;BME280_humidity;BME280_pressure;Samples;Min_cycle;Max_cycle;Signal;HPM_P1;HPM_P2
2023/08/06 00:00:04;;;;;;;5.07;2.20;;;15.10;99.90;;;;;;4963867;28;20501;-74
2023/08/06 00:02:30;;;;;;;5.20;3.28;;;15.10;99.90;;;;;;4963719;28;20039;-71
2023/08/06 00:04:56;;;;;;;2.92;2.63;;;15.00;99.90;;;;;;4961457;28;20165;-73
2023/08/06 00:07:21;;;;;;;4.82;2.78;;;15.00;99.90;;;;;;4965008;28;20100;-74
2023/08/06 00:09:47;;;;;;;6.18;3.17;;;15.00;99.90;;;;;;4966154;28;20042;-74
2023/08/06 00:12:12;;;;;;;4.88;2.90;;;15.00;99.90;;;;;;4962870;28;20030;-72
2023/08/06 00:14:38;;;;;;;4.65;2.65;;;14.90;99.90;;;;;;4964110;28;20034;-74
2023/08/06 00:17:04;;;;;;;2.40;2.10;;;14.90;99.90;;;;;;4967380;28;20023;-73
2023/08/06 00:19:31;;;;;;;4.70;3.13;;;14.90;99.90;;;;;;4967282;28;20476;-72
2023/08/06 00:21:56;;;;;;;5.25;2.75;;;14.90;99.90;;;;;;4966054;28;20029;-75
2023/08/06 00:24:22;;;;;;;3.20;2.42;;;14.80;99.90;;;;;;4969457;28;20112;-74
2023/08/06 00:26:48;;;;;;;4.72;2.35;;;14.80;99.90;;;;;;4970193;28;20144;-75
2023/08/06 00:29:13;;;;;;;3.92;2.53;;;14.80;99.90;;;;;;4971718;28;20069;-74
2023/08/06 00:31:39;;;;;;;5.15;2.83;;;14.80;99.90;;;;;;4974881;28;20038;-75
2023/08/06 00:34:04;;;;;;;7.45;2.50;;;14.80;99.90;;;;;;4969268;28;20125;-73
2023/08/06 00:36:30;;;;;;;5.03;2.80;;;14.70;99.90;;;;;;4961217;28;20035;-72
2023/08/06 00:38:55;;;;;;;3.45;2.58;;;14.60;99.90;;;;;;4969725;28;20042;-74
2023/08/06 00:41:21;;;;;;;4.07;2.75;;;14.60;99.90;;;;;;4966700;28;20106;-75
2023/08/06 00:43:47;;;;;;;6.15;2.95;;;14.60;99.90;;;;;;4964899;28;20045;-76
2023/08/06 00:46:13;;;;;;;3.92;2.47;;;14.60;99.90;;;;;;4964089;28;20034;-73
2023/08/06 00:48:40;;;;;;;2.55;2.10;;;14.50;99.90;;;;;;4965356;28;20549;-72
2023/08/06 00:51:06;;;;;;;4.65;2.20;;;14.50;99.90;;;;;;4963508;28;20035;-74
2023/08/06 00:53:32;;;;;;;3.60;2.30;;;14.50;99.90;;;;;;4963446;28;20026;-74
2023/08/06 00:55:58;;;;;;;2.88;2.00;;;14.50;99.90;;;;;;4972408;28;20073;-74
2023/08/06 00:58:24;;;;;;;5.28;2.30;;;14.40;99.90;;;;;;4971774;28;20027;-75
2023/08/06 01:00:49;;;;;;;5.93;2.63;;;14.40;99.90;;;;;;4971427;28;20033;-74
2023/08/06 01:03:15;;;;;;;3.42;2.30;;;14.40;99.90;;;;;;4970167;28;20027;-74
2023/08/06 01:05:41;;;;;;;2.95;1.80;;;14.30;99.90;;;;;;4970720;28;20065;-74
2023/08/06 01:08:41;;;;;;;4.13;1.77;;;14.30;99.90;;;;;;4971018;28;20026;-73
2023/08/06 01:11:43;;;;;;;2.72;1.35;;;14.30;99.90;;;;;;4957943;28;20027;-74
2023/08/06 01:14:33;;;;;;;3.25;1.50;;;14.30;99.90;;;;;;4972353;28;20056;-74
2023/08/06 01:16:58;;;;;;;3.03;1.70;;;14.30;99.90;;;;;;4971794;28;20046;-74
2023/08/06 01:19:24;;;;;;;2.22;1.45;;;14.30;99.90;;;;;;4972032;28;20057;-74
2023/08/06 01:21:50;;;;;;;3.92;1.40;;;14.30;99.90;;;;;;4969758;28;20030;-74
2023/08/06 01:24:15;;;;;;;1.92;1.33;;;14.20;99.90;;;;;;4972147;28;20046;-74
2023/08/06 01:26:50;;;;;;;3.30;1.70;;;14.20;99.90;;;;;;4973624;28;20027;-74
2023/08/06 01:29:24;;;;;;;5.28;1.65;;;14.20;99.90;;;;;;4975604;28;20018;-73
2023/08/06 01:31:52;;;;;;;3.67;1.50;;;14.20;99.90;;;;;;4968668;28;20576;-73
2023/08/06 01:34:21;;;;;;;1.88;1.30;;;14.20;99.90;;;;;;4975616;28;20473;-74
2023/08/06 01:36:47;;;;;;;3.25;1.45;;;14.10;99.90;;;;;;4974335;28;20047;-75
2023/08/06 01:39:13;;;;;;;4.60;1.48;;;14.10;99.90;;;;;;4974514;28;20478;-75
2023/08/06 01:41:39;;;;;;;2.75;1.10;;;14.10;99.90;;;;;;4975641;28;20500;-75
2023/08/06 01:44:05;;;;;;;5.53;1.58;;;14.10;99.90;;;;;;4970352;28;20054;-74
2023/08/06 01:46:30;;;;;;;3.72;1.60;;;14.10;99.90;;;;;;4974893;28;20022;-74
2023/08/06 01:48:56;;;;;;;7.18;1.67;;;14.00;99.90;;;;;;4977594;28;20038;-74
2023/08/06 01:51:22;;;;;;;4.72;1.90;;;14.00;99.90;;;;;;4973949;28;20574;-76
2023/08/06 01:53:47;;;;;;;4.93;1.45;;;14.00;99.90;;;;;;4978587;28;20121;-75
2023/08/06 01:56:13;;;;;;;3.65;1.83;;;14.00;99.90;;;;;;4973444;28;20159;-76
2023/08/06 01:58:38;;;;;;;4.45;2.00;;;14.00;99.90;;;;;;4975739;28;20097;-75
2023/08/06 02:01:04;;;;;;;6.00;2.10;;;14.00;99.90;;;;;;4976887;28;20077;-76
2023/08/06 02:03:30;;;;;;;5.25;1.90;;;14.00;99.90;;;;;;4973156;28;20042;-76
2023/08/06 02:05:55;;;;;;;5.82;2.08;;;13.90;99.90;;;;;;4975415;28;20482;-75
2023/08/06 02:08:21;;;;;;;4.72;2.03;;;13.90;99.90;;;;;;4971063;28;20026;-74
2023/08/06 02:10:47;;;;;;;3.25;1.83;;;13.90;99.90;;;;;;4970982;28;20037;-75
2023/08/06 02:13:12;;;;;;;4.35;1.95;;;13.90;99.90;;;;;;4976677;28;20023;-75
2023/08/06 02:15:47;;;;;;;3.75;1.80;;;13.90;99.90;;;;;;4974872;28;20015;-74
2023/08/06 02:18:13;;;;;;;2.60;1.40;;;13.80;99.90;;;;;;4972990;28;20019;-74
2023/08/06 02:20:39;;;;;;;3.38;1.77;;;13.80;99.90;;;;;;4973264;28;20019;-75
2023/08/06 02:23:04;;;;;;;4.80;1.95;;;13.80;99.90;;;;;;4971072;28;20037;-75
2023/08/06 02:25:30;;;;;;;5.10;2.08;;;13.70;99.90;;;;;;4966958;28;20031;-74
2023/08/06 02:27:56;;;;;;;2.53;1.27;;;13.80;99.90;;;;;;4964792;28;20585;-75
2023/08/06 02:30:21;;;;;;;3.20;1.77;;;13.80;99.90;;;;;;4972708;28;20107;-75
2023/08/06 02:32:47;;;;;;;3.80;1.45;;;13.70;99.90;;;;;;4972396;28;20031;-75
2023/08/06 02:35:12;;;;;;;7.10;1.90;;;13.70;99.90;;;;;;4971580;28;20022;-73
2023/08/06 02:37:38;;;;;;;3.20;1.60;;;13.70;99.90;;;;;;4970988;28;20121;-73
2023/08/06 02:40:04;;;;;;;3.50;1.70;;;13.70;99.90;;;;;;4969612;28;20105;-74
2023/08/06 02:42:30;;;;;;;2.63;1.48;;;13.70;99.90;;;;;;4986969;28;20110;-74
2023/08/06 02:44:55;;;;;;;3.78;1.77;;;13.60;99.90;;;;;;4973154;28;20161;-74
2023/08/06 02:47:21;;;;;;;4.32;1.60;;;13.60;99.90;;;;;;4971163;28;20030;-74
2023/08/06 02:49:46;;;;;;;4.50;1.40;;;13.60;99.90;;;;;;4990649;23;21548;-77
2023/08/06 02:52:12;;;;;;;3.80;1.40;;;13.60;99.90;;;;;;4968170;28;20035;-77
2023/08/06 02:54:38;;;;;;;11.82;2.05;;;13.60;99.90;;;;;;4970698;28;20025;-77
2023/08/06 02:57:05;;;;;;;4.00;1.77;;;13.60;99.90;;;;;;4965739;28;20389;-77
2023/08/06 02:59:31;;;;;;;2.17;1.40;;;13.60;99.90;;;;;;4972329;28;21977;-78
2023/08/06 03:01:57;;;;;;;2.17;1.55;;;13.60;99.90;;;;;;4970855;28;20019;-78
2023/08/06 03:04:22;;;;;;;3.15;1.35;;;13.60;99.90;;;;;;4970712;28;20085;-78
2023/08/06 03:06:50;;;;;;;2.55;1.50;;;13.60;99.90;;;;;;4970288;28;20061;-77
2023/08/06 03:09:16;;;;;;;3.72;1.90;;;13.60;99.90;;;;;;4969214;28;20069;-77
2023/08/06 03:11:42;;;;;;;4.55;1.70;;;13.60;99.90;;;;;;4975155;28;20031;-78
2023/08/06 03:14:07;;;;;;;5.22;1.73;;;13.60;99.90;;;;;;4970271;28;20049;-77
2023/08/06 03:16:33;;;;;;;4.25;1.80;;;13.60;99.90;;;;;;4967330;28;20015;-77
2023/08/06 03:18:58;;;;;;;1.58;1.35;;;13.60;99.90;;;;;;4971861;28;20038;-77
2023/08/06 03:21:24;;;;;;;5.53;1.52;;;13.60;99.90;;;;;;4968472;28;20033;-78
2023/08/06 03:23:50;;;;;;;2.55;1.33;;;13.60;99.90;;;;;;4970609;28;20054;-78
2023/08/06 03:26:16;;;;;;;2.85;1.30;;;13.60;99.90;;;;;;4964471;28;20026;-77
2023/08/06 03:28:41;;;;;;;3.75;1.40;;;13.60;99.90;;;;;;4966138;28;20034;-77
2023/08/06 03:31:07;;;;;;;2.80;1.33;;;13.60;99.90;;;;;;4968820;28;20119;-77
2023/08/06 03:33:32;;;;;;;4.03;1.50;;;13.70;99.90;;;;;;4968918;28;20030;-78
2023/08/06 03:35:58;;;;;;;11.57;1.50;;;13.60;99.90;;;;;;4966425;28;20030;-76
2023/08/06 03:38:24;;;;;;;3.58;1.60;;;13.70;99.90;;;;;;4983043;28;20022;-77
2023/08/06 03:40:49;;;;;;;5.32;1.63;;;13.70;99.90;;;;;;4968580;28;20117;-77
2023/08/06 03:43:15;;;;;;;2.33;1.20;;;13.70;99.90;;;;;;4961753;28;20599;-77
2023/08/06 03:45:41;;;;;;;3.72;1.40;;;13.70;99.90;;;;;;4970686;28;20110;-78
2023/08/06 03:48:07;;;;;;;2.60;1.05;;;13.80;99.90;;;;;;4971402;28;20031;-77
2023/08/06 03:50:33;;;;;;;4.40;1.50;;;13.90;99.90;;;;;;4970670;28;20044;-76
2023/08/06 03:52:58;;;;;;;4.25;1.40;;;13.90;99.90;;;;;;4981181;28;20189;-76
2023/08/06 03:55:24;;;;;;;3.20;1.00;;;14.00;99.90;;;;;;4966031;28;20027;-77
2023/08/06 03:57:49;;;;;;;4.25;1.23;;;14.00;99.90;;;;;;4971779;28;20041;-78
2023/08/06 04:00:15;;;;;;;1.80;1.02;;;14.10;99.90;;;;;;4986418;28;20453;-77
2023/08/06 04:02:41;;;;;;;2.47;1.15;;;14.10;99.90;;;;;;4969393;28;20417;-78
2023/08/06 04:05:07;;;;;;;3.33;1.13;;;14.10;99.90;;;;;;4969929;28;20053;-77
2023/08/06 04:07:32;;;;;;;3.17;1.15;;;14.20;99.90;;;;;;4970894;28;20081;-76
2023/08/06 04:10:03;;;;;;;2.55;1.10;;;14.20;99.90;;;;;;4970051;28;20434;-77
2023/08/06 04:12:29;;;;;;;2.97;1.20;;;14.20;99.90;;;;;;4970741;28;21432;-77
2023/08/06 04:14:55;;;;;;;2.70;0.90;;;14.20;99.90;;;;;;4970147;28;20078;-78
2023/08/06 04:17:21;;;;;;;3.75;1.35;;;14.20;99.90;;;;;;4969196;28;20106;-78
2023/08/06 04:19:49;;;;;;;3.28;1.25;;;14.20;99.90;;;;;;4974577;28;20038;-79
2023/08/06 04:22:15;;;;;;;3.67;1.38;;;14.10;99.90;;;;;;4970398;28;20046;-79
2023/08/06 04:24:42;;;;;;;2.95;1.20;;;14.10;99.90;;;;;;4976243;28;20031;-79
2023/08/06 04:27:12;;;;;;;4.20;1.25;;;14.10;99.90;;;;;;4975419;28;20078;-78
2023/08/06 04:29:38;;;;;;;1.50;0.90;;;14.10;99.90;;;;;;4973116;28;20027;-78
2023/08/06 04:32:09;;;;;;;2.28;0.98;;;14.10;99.90;;;;;;4975178;28;20416;-78
2023/08/06 04:34:35;;;;;;;4.15;1.40;;;14.10;99.90;;;;;;4974621;28;21400;-77
2023/08/06 04:37:01;;;;;;;2.63;1.23;;;14.10;99.90;;;;;;4969931;28;20390;-77
2023/08/06 04:39:27;;;;;;;2.05;1.10;;;14.00;99.90;;;;;;4966738;28;20027;-79
2023/08/06 04:41:52;;;;;;;3.90;1.67;;;14.00;99.90;;;;;;4969422;28;20061;-77
2023/08/06 04:44:18;;;;;;;8.82;1.08;;;14.00;99.90;;;;;;4971737;28;20023;-78
2023/08/06 04:46:44;;;;;;;3.63;1.17;;;14.00;99.90;;;;;;4977549;28;20027;-78
2023/08/06 04:49:10;;;;;;;5.43;1.45;;;14.00;99.90;;;;;;4995925;28;20046;-78
2023/08/06 04:51:36;;;;;;;3.63;0.93;;;13.90;99.90;;;;;;5008745;28;20042;-78
2023/08/06 04:54:02;;;;;;;4.95;1.20;;;13.90;99.90;;;;;;4996135;28;20080;-77
2023/08/06 04:56:27;;;;;;;4.85;0.90;;;13.90;99.90;;;;;;5012451;28;20410;-77
2023/08/06 04:58:53;;;;;;;2.78;0.80;;;13.90;99.90;;;;;;4995749;28;20026;-78
2023/08/06 05:01:19;;;;;;;5.65;1.10;;;13.90;99.90;;;;;;5000629;28;20032;-77
2023/08/06 05:03:44;;;;;;;2.25;1.00;;;13.90;99.90;;;;;;5012737;28;20033;-78
2023/08/06 05:06:10;;;;;;;5.78;0.90;;;13.90;99.90;;;;;;5013531;28;20022;-77
2023/08/06 05:08:36;;;;;;;2.33;0.70;;;13.90;99.90;;;;;;4995084;28;20063;-78
2023/08/06 05:11:02;;;;;;;2.30;0.90;;;13.90;99.90;;;;;;5015628;28;20041;-78
2023/08/06 05:13:27;;;;;;;2.10;0.90;;;13.90;99.90;;;;;;5013992;28;20044;-78
2023/08/06 05:15:56;;;;;;;4.15;1.17;;;13.90;99.90;;;;;;4999270;28;20476;-77
2023/08/06 05:18:22;;;;;;;1.77;0.63;;;13.90;99.90;;;;;;5011952;28;20032;-78
2023/08/06 05:20:48;;;;;;;1.08;0.82;;;14.00;99.90;;;;;;5013722;28;20128;-78
2023/08/06 05:23:13;;;;;;;2.85;1.10;;;14.00;99.90;;;;;;5010771;28;20036;-78
2023/08/06 05:25:39;;;;;;;1.70;0.60;;;14.20;99.90;;;;;;5013319;28;20030;-78
2023/08/06 05:28:05;;;;;;;2.15;0.70;;;14.20;99.90;;;;;;5015783;28;20041;-78
2023/08/06 05:30:31;;;;;;;2.45;0.70;;;14.30;99.90;;;;;;5012566;28;20068;-78
2023/08/06 05:32:56;;;;;;;3.63;0.90;;;14.30;99.90;;;;;;4997791;28;20496;-78
2023/08/06 05:35:22;;;;;;;1.42;0.50;;;14.40;99.90;;;;;;5009589;28;20467;-77
2023/08/06 05:37:49;;;;;;;1.75;0.50;;;14.40;99.90;;;;;;5015684;28;20545;-77
2023/08/06 05:40:15;;;;;;;1.13;0.60;;;14.50;99.90;;;;;;4993632;28;20080;-78
2023/08/06 05:42:41;;;;;;;2.88;0.80;;;14.50;99.90;;;;;;5014173;28;20073;-76
2023/08/06 05:45:07;;;;;;;2.97;0.60;;;14.60;99.90;;;;;;5001264;28;20033;-78
2023/08/06 05:47:33;;;;;;;2.03;0.60;;;14.70;99.90;;;;;;4999459;28;20034;-77
2023/08/06 05:49:58;;;;;;;4.95;0.73;;;14.70;99.90;;;;;;4996004;28;20053;-77
2023/08/06 05:52:24;;;;;;;2.47;0.77;;;14.70;99.90;;;;;;5012791;28;20026;-77
2023/08/06 05:54:50;;;;;;;1.55;0.60;;;14.70;99.90;;;;;;5012078;28;20037;-77
2023/08/06 05:57:16;;;;;;;2.30;0.60;;;14.70;99.90;;;;;;5013352;28;20021;-77
2023/08/06 05:59:42;;;;;;;2.17;0.50;;;14.70;99.90;;;;;;5016988;28;20404;-77
2023/08/06 06:02:08;;;;;;;2.03;0.60;;;14.80;99.90;;;;;;5008267;28;20022;-78
2023/08/06 06:04:34;;;;;;;1.48;0.50;;;14.80;99.90;;;;;;5011708;28;21484;-77
2023/08/06 06:06:59;;;;;;;0.75;0.40;;;14.80;99.90;;;;;;4993328;28;20033;-78
2023/08/06 06:09:25;;;;;;;3.85;0.70;;;14.80;99.90;;;;;;5009869;28;20037;-78
2023/08/06 06:11:51;;;;;;;1.10;0.40;;;14.80;99.90;;;;;;5012642;28;20392;-78
2023/08/06 06:14:17;;;;;;;1.95;0.63;;;14.80;99.90;;;;;;5012484;28;20033;-79
2023/08/06 06:16:43;;;;;;;1.00;0.40;;;14.80;99.90;;;;;;4995282;28;20030;-78
2023/08/06 06:19:09;;;;;;;1.35;0.50;;;14.80;99.90;;;;;;5013897;28;20022;-78
2023/08/06 06:21:34;;;;;;;0.63;0.40;;;14.80;99.90;;;;;;5013744;28;20033;-79
2023/08/06 06:24:00;;;;;;;1.15;0.55;;;14.80;99.90;;;;;;4988885;28;20087;-78
2023/08/06 06:26:26;;;;;;;1.67;0.40;;;14.80;99.90;;;;;;5009569;28;20044;-72
2023/08/06 06:28:51;;;;;;;2.30;0.50;;;14.90;99.90;;;;;;4992150;28;20033;-72
2023/08/06 06:31:17;;;;;;;1.50;0.70;;;14.90;99.90;;;;;;5008427;28;20076;-73
2023/08/06 06:33:42;;;;;;;2.92;0.90;;;15.10;99.90;;;;;;5009488;28;20026;-74
2023/08/06 06:36:08;;;;;;;1.52;0.45;;;15.20;99.90;;;;;;5008094;28;20514;-74
2023/08/06 06:38:34;;;;;;;0.73;0.43;;;15.20;99.90;;;;;;5004548;28;20035;-75
2023/08/06 06:41:00;;;;;;;1.67;0.60;;;15.20;99.90;;;;;;5005699;28;20140;-73
2023/08/06 06:43:26;;;;;;;1.27;0.50;;;15.20;99.90;;;;;;5007476;28;20053;-73
2023/08/06 06:45:59;;;;;;;1.52;0.40;;;15.30;99.90;;;;;;5009792;28;20558;-74
2023/08/06 06:48:29;;;;;;;5.65;1.02;;;15.30;99.90;;;;;;5008859;28;20449;-73
2023/08/06 06:50:56;;;;;;;1.27;0.50;;;15.30;99.90;;;;;;5010106;28;20033;-77
2023/08/06 06:53:27;;;;;;;1.05;0.50;;;15.40;99.90;;;;;;5012568;28;20025;-78
2023/08/06 06:55:53;;;;;;;1.10;0.50;;;15.30;99.90;;;;;;5009600;28;20030;-78
2023/08/06 06:58:19;;;;;;;1.05;0.35;;;15.30;99.90;;;;;;4992343;28;20034;-77
2023/08/06 07:00:46;;;;;;;2.88;0.40;;;15.40;99.90;;;;;;5010744;28;20041;-75
2023/08/06 07:03:12;;;;;;;0.65;0.30;;;15.40;99.90;;;;;;4996191;28;20095;-76
2023/08/06 07:05:37;;;;;;;2.13;0.40;;;15.30;99.90;;;;;;5006583;28;20571;-76
2023/08/06 07:08:03;;;;;;;0.75;0.20;;;15.30;99.90;;;;;;5010763;28;20021;-75
2023/08/06 07:10:29;;;;;;;1.17;0.40;;;15.30;99.90;;;;;;5010640;28;20054;-78
2023/08/06 07:12:54;;;;;;;1.75;0.35;;;15.40;99.90;;;;;;4995742;28;20034;-77
2023/08/06 07:15:20;;;;;;;0.55;0.45;;;15.40;99.90;;;;;;5013454;28;20018;-75
2023/08/06 07:17:46;;;;;;;0.60;0.30;;;15.50;99.90;;;;;;5008110;28;20118;-74
2023/08/06 07:20:11;;;;;;;1.67;0.43;;;15.50;99.90;;;;;;5014740;28;20022;-73
2023/08/06 07:22:37;;;;;;;0.60;0.20;;;15.60;99.90;;;;;;5009070;28;20029;-74
2023/08/06 07:25:03;;;;;;;2.65;0.40;;;15.60;99.90;;;;;;5010552;28;20025;-74
2023/08/06 07:27:28;;;;;;;0.52;0.30;;;15.60;99.90;;;;;;5008601;28;20100;-74
2023/08/06 07:29:54;;;;;;;2.78;0.60;;;15.60;99.90;;;;;;5008896;28;20057;-77
2023/08/06 07:32:19;;;;;;;4.72;1.00;;;15.60;99.90;;;;;;4992934;28;20676;-75
2023/08/06 07:34:45;;;;;;;2.05;0.40;;;15.50;99.90;;;;;;5011117;28;20025;-75
2023/08/06 07:37:11;;;;;;;2.78;0.40;;;15.50;99.90;;;;;;5011460;28;20041;-75
2023/08/06 07:39:37;;;;;;;0.98;0.22;;;15.40;99.90;;;;;;4990597;28;20025;-76
2023/08/06 07:42:05;;;;;;;1.13;0.30;;;15.40;99.90;;;;;;5004196;28;20511;-75
2023/08/06 07:44:31;;;;;;;0.70;0.30;;;15.30;99.90;;;;;;5006388;28;20022;-74
2023/08/06 07:46:56;;;;;;;0.40;0.20;;;15.30;99.90;;;;;;5000435;28;20022;-75
2023/08/06 07:49:22;;;;;;;0.45;0.20;;;15.20;99.90;;;;;;5002055;28;20036;-75
2023/08/06 07:51:48;;;;;;;1.02;0.30;;;15.30;99.90;;;;;;5008182;28;20025;-77
2023/08/06 07:54:13;;;;;;;0.20;0.10;;;15.30;99.90;;;;;;5007062;28;20030;-78
2023/08/06 07:56:39;;;;;;;0.57;0.30;;;15.20;99.90;;;;;;5006471;28;20014;-77
2023/08/06 07:59:05;;;;;;;0.80;0.20;;;15.30;99.90;;;;;;5004673;28;20072;-78
2023/08/06 08:01:30;;;;;;;0.32;0.22;;;15.30;99.90;;;;;;4992592;28;20477;-77
2023/08/06 08:03:56;;;;;;;0.63;0.20;;;15.30;99.90;;;;;;5009840;28;20057;-77
2023/08/06 08:06:23;;;;;;;0.75;0.38;;;15.30;99.90;;;;;;5007456;28;20520;-77
2023/08/06 08:08:48;;;;;;;0.73;0.20;;;15.20;99.90;;;;;;5008907;28;20377;-77
2023/08/06 08:11:15;;;;;;;0.52;0.20;;;15.30;99.90;;;;;;5007708;28;20115;-78
2023/08/06 08:13:41;;;;;;;0.30;0.20;;;15.30;99.90;;;;;;5009227;28;20021;-77
2023/08/06 08:16:07;;;;;;;0.32;0.20;;;15.20;99.90;;;;;;5006017;28;20018;-77
2023/08/06 08:18:33;;;;;;;0.65;0.40;;;15.30;99.90;;;;;;5009571;28;20038;-77
2023/08/06 08:20:59;;;;;;;0.90;0.20;;;15.30;99.90;;;;;;5011013;28;20370;-78
2023/08/06 08:23:24;;;;;;;0.50;0.30;;;15.30;99.90;;;;;;5009356;28;20026;-77
2023/08/06 08:25:50;;;;;;;0.80;0.20;;;15.40;99.90;;;;;;5011395;28;20030;-77
2023/08/06 08:28:15;;;;;;;0.60;0.30;;;15.40;99.90;;;;;;5007385;28;20030;-78
2023/08/06 08:30:41;;;;;;;1.17;0.22;;;15.40;99.90;;;;;;4987952;28;20104;-78
2023/08/06 08:33:07;;;;;;;1.17;0.20;;;15.40;99.90;;;;;;4996602;28;20030;-76
2023/08/06 08:35:33;;;;;;;0.30;0.20;;;15.30;99.90;;;;;;5011683;28;20021;-78
2023/08/06 08:37:59;;;;;;;0.35;0.20;;;15.30;99.90;;;;;;5010183;28;20034;-78
2023/08/06 08:40:32;;;;;;;0.20;0.20;;;15.20;99.90;;;;;;5013459;28;20025;-77
2023/08/06 08:42:59;;;;;;;1.07;0.20;;;15.20;99.90;;;;;;5008982;28;25085;-78
2023/08/06 08:45:28;;;;;;;0.20;0.13;;;15.20;99.90;;;;;;4997670;28;20330;-77
2023/08/06 08:47:54;;;;;;;0.20;0.20;;;15.20;99.90;;;;;;5009599;28;20061;-77
2023/08/06 08:50:21;;;;;;;0.20;0.20;;;15.30;99.90;;;;;;5016802;28;20100;-76
2023/08/06 08:52:48;;;;;;;0.25;0.20;;;15.30;99.90;;;;;;5016377;28;20504;-75
2023/08/06 08:55:15;;;;;;;0.25;0.20;;;15.40;99.90;;;;;;5009260;28;20091;-76
2023/08/06 08:57:41;;;;;;;0.10;0.10;;;15.40;99.90;;;;;;5017400;28;20049;-75
2023/08/06 09:00:07;;;;;;;0.82;0.22;;;15.50;99.90;;;;;;5018615;28;20072;-76
2023/08/06 09:02:37;;;;;;;1.48;0.20;;;15.50;99.90;;;;;;4997263;28;20591;-76
2023/08/06 09:05:05;;;;;;;1.48;0.20;;;15.50;99.90;;;;;;4988435;28;20024;-77
2023/08/06 09:07:35;;;;;;;0.85;0.50;;;15.50;99.90;;;;;;5018001;28;20026;-76
2023/08/06 09:10:06;;;;;;;0.32;0.30;;;15.50;99.90;;;;;;5008561;28;20031;-77
2023/08/06 09:12:31;;;;;;;0.20;0.20;;;15.50;99.90;;;;;;5016983;28;20387;-77
2023/08/06 09:14:58;;;;;;;0.20;0.20;;;15.40;99.90;;;;;;4999130;28;20022;-76
2023/08/06 09:17:23;;;;;;;0.98;0.35;;;15.40;99.90;;;;;;5026435;28;20025;-77
2023/08/06 09:19:49;;;;;;;0.60;0.20;;;15.40;99.90;;;;;;5025780;28;20416;-77
2023/08/06 09:22:15;;;;;;;3.03;0.20;;;15.30;99.90;;;;;;5006475;28;20081;-78
2023/08/06 09:24:42;;;;;;;1.10;0.20;;;15.40;99.90;;;;;;5002420;28;20503;-77
2023/08/06 09:27:15;;;;;;;0.20;0.20;;;15.50;99.90;;;;;;4999714;28;20133;-76
2023/08/06 09:29:45;;;;;;;1.10;0.52;;;15.60;99.90;;;;;;4995852;28;20037;-76
2023/08/06 09:32:12;;;;;;;0.40;0.20;;;15.80;99.90;;;;;;5017154;28;20078;-76
2023/08/06 09:34:40;;;;;;;0.47;0.17;;;15.90;99.90;;;;;;4998673;28;20025;-77
2023/08/06 09:37:08;;;;;;;0.25;0.20;;;16.00;99.90;;;;;;5012676;28;20129;-77
2023/08/06 09:39:33;;;;;;;0.20;0.20;;;16.20;99.90;;;;;;4990327;28;20134;-77
2023/08/06 09:42:04;;;;;;;0.40;0.20;;;16.40;99.90;;;;;;4998163;28;20049;-77
2023/08/06 09:44:32;;;;;;;0.30;0.20;;;16.50;99.90;;;;;;5014920;28;20025;-78
2023/08/06 09:46:59;;;;;;;0.22;0.20;;;16.70;99.90;;;;;;5015756;28;20072;-79
2023/08/06 09:49:32;;;;;;;1.27;0.20;;;16.70;99.90;;;;;;5014073;28;20030;-77
2023/08/06 09:51:59;;;;;;;0.20;0.20;;;16.70;99.90;;;;;;5001306;28;20018;-78
2023/08/06 09:54:26;;;;;;;0.73;0.20;;;16.70;99.90;;;;;;5022006;28;20022;-78
2023/08/06 09:56:53;;;;;;;0.52;0.17;;;16.70;99.90;;;;;;5010906;28;20041;-77
2023/08/06 09:59:19;;;;;;;0.47;0.25;;;16.60;99.90;;;;;;5014416;28;20508;-77
2023/08/06 10:01:46;;;;;;;0.50;0.30;;;16.50;99.90;;;;;;5031630;28;20022;-76
2023/08/06 10:04:15;;;;;;;0.82;0.40;;;16.40;99.90;;;;;;5036177;28;20033;-76
2023/08/06 10:06:42;;;;;;;0.30;0.20;;;16.30;99.90;;;;;;5023233;28;20022;-76
2023/08/06 10:09:09;;;;;;;0.20;0.20;;;16.30;99.90;;;;;;4996761;28;20108;-77
2023/08/06 10:11:37;;;;;;;1.70;0.30;;;16.30;99.90;;;;;;5013557;28;20030;-76
2023/08/06 10:14:09;;;;;;;1.75;0.38;;;16.30;99.90;;;;;;5009995;28;20030;-76
2023/08/06 10:16:36;;;;;;;1.60;0.60;;;16.20;99.90;;;;;;4998502;28;20034;-78
2023/08/06 10:19:04;;;;;;;1.95;0.50;;;16.10;99.90;;;;;;5014896;28;20022;-77
2023/08/06 10:21:31;;;;;;;2.55;0.35;;;16.00;99.90;;;;;;5008181;28;20018;-78
2023/08/06 10:23:57;;;;;;;1.67;0.40;;;15.90;99.90;;;;;;5017624;28;20038;-77
2023/08/06 10:26:26;;;;;;;1.10;0.70;;;15.80;99.90;;;;;;4998631;28;20041;-78
2023/08/06 10:28:52;;;;;;;0.60;0.45;;;15.70;99.90;;;;;;5011933;28;20049;-77
2023/08/06 10:31:18;;;;;;;0.60;0.30;;;15.70;99.90;;;;;;5016504;28;20034;-78
2023/08/06 10:33:45;;;;;;;0.30;0.30;;;15.70;99.90;;;;;;5013302;28;20041;-77
2023/08/06 10:36:12;;;;;;;1.30;0.50;;;15.70;99.90;;;;;;4990576;28;20037;-76
2023/08/06 10:38:49;;;;;;;1.75;0.30;;;15.70;99.90;;;;;;5007963;28;20026;-75
2023/08/06 10:41:22;;;;;;;0.50;0.20;;;15.70;99.90;;;;;;5005687;28;20026;-76
2023/08/06 10:43:48;;;;;;;0.30;0.30;;;15.70;99.90;;;;;;4992220;28;20511;-77
2023/08/06 10:46:43;;;;;;;0.75;0.20;;;15.70;99.90;;;;;;5007235;28;20038;-76
2023/08/06 10:49:11;;;;;;;0.30;0.20;;;15.70;99.90;;;;;;4998759;28;20049;-76
2023/08/06 10:51:37;;;;;;;1.40;0.30;;;15.70;99.90;;;;;;5008274;28;20042;-76
2023/08/06 10:54:02;;;;;;;0.70;0.30;;;15.80;99.90;;;;;;5006878;28;20460;-76
2023/08/06 10:56:28;;;;;;;1.45;0.40;;;15.80;99.90;;;;;;5014606;28;20020;-76
2023/08/06 10:58:58;;;;;;;1.10;0.40;;;15.90;99.90;;;;;;4994785;28;20026;-76
2023/08/06 11:01:24;;;;;;;0.73;0.45;;;15.90;99.90;;;;;;5004043;28;20101;-77
2023/08/06 11:03:50;;;;;;;0.85;0.32;;;15.90;99.90;;;;;;5012437;28;20080;-76
2023/08/06 11:06:23;;;;;;;0.82;0.40;;;16.00;99.90;;;;;;5008634;28;20022;-76
2023/08/06 11:08:53;;;;;;;0.65;0.30;;;16.10;99.90;;;;;;4992883;28;20034;-76
2023/08/06 11:11:20;;;;;;;1.63;0.30;;;16.10;99.90;;;;;;5009459;28;20104;-76
2023/08/06 11:13:50;;;;;;;2.60;0.30;;;16.00;99.90;;;;;;4991668;28;20080;-76
2023/08/06 11:16:18;;;;;;;1.10;0.22;;;16.00;99.90;;;;;;5006696;28;20020;-76
2023/08/06 11:18:44;;;;;;;0.82;0.30;;;16.00;99.90;;;;;;5006104;28;20038;-75
2023/08/06 11:21:11;;;;;;;1.70;0.30;;;16.00;99.90;;;;;;4991261;28;20105;-75
2023/08/06 11:23:37;;;;;;;1.33;0.40;;;16.00;99.90;;;;;;4991006;28;20409;-76
2023/08/06 11:26:03;;;;;;;0.32;0.20;;;15.90;99.90;;;;;;5008804;28;20076;-75
2023/08/06 11:28:28;;;;;;;2.80;0.30;;;15.90;99.90;;;;;;5006126;28;20034;-77
2023/08/06 11:30:56;;;;;;;0.30;0.30;;;15.90;99.90;;;;;;5011397;28;20040;-76
2023/08/06 11:33:25;;;;;;;1.55;0.30;;;15.80;99.90;;;;;;5007122;28;20030;-75
2023/08/06 11:35:51;;;;;;;0.40;0.30;;;15.70;99.90;;;;;;4991693;28;20037;-74
2023/08/06 11:38:18;;;;;;;0.43;0.20;;;15.70;99.90;;;;;;5005677;28;20033;-75
2023/08/06 11:40:47;;;;;;;0.85;0.30;;;15.60;99.90;;;;;;5006149;28;20030;-74
2023/08/06 11:43:13;;;;;;;0.45;0.30;;;15.50;99.90;;;;;;5003118;28;20137;-74
2023/08/06 11:45:40;;;;;;;2.45;0.43;;;15.50;99.90;;;;;;5009051;28;20089;-76
2023/08/06 11:48:08;;;;;;;2.13;0.30;;;15.50;99.90;;;;;;5007263;28;20032;-75
2023/08/06 11:50:37;;;;;;;0.35;0.20;;;15.40;99.90;;;;;;5006072;28;20434;-74
2023/08/06 11:53:03;;;;;;;0.30;0.20;;;15.40;99.90;;;;;;5007812;28;20040;-75
2023/08/06 11:55:29;;;;;;;1.02;0.30;;;15.40;99.90;;;;;;5008857;28;20100;-76
2023/08/06 11:57:56;;;;;;;1.88;0.40;;;15.40;99.90;;;;;;5001208;28;20116;-74
2023/08/06 12:00:24;;;;;;;1.70;0.57;;;15.40;99.90;;;;;;4996493;28;20021;-75
2023/08/06 12:02:52;;;;;;;4.68;0.40;;;15.40;99.90;;;;;;5009188;28;20441;-76
2023/08/06 12:05:20;;;;;;;0.40;0.20;;;15.50;99.90;;;;;;5006789;28;20049;-76
2023/08/06 12:07:48;;;;;;;0.40;0.20;;;15.50;99.90;;;;;;5003560;28;20025;-78
2023/08/06 12:10:14;;;;;;;0.88;0.30;;;15.50;99.90;;;;;;5008727;28;20084;-77
2023/08/06 12:12:40;;;;;;;0.50;0.20;;;15.60;99.90;;;;;;5013669;28;20622;-76
2023/08/06 12:15:07;;;;;;;0.32;0.10;;;15.70;99.90;;;;;;5014032;28;20096;-77
2023/08/06 12:17:33;;;;;;;1.63;0.40;;;15.70;99.90;;;;;;5014692;28;20399;-76
2023/08/06 12:19:59;;;;;;;0.30;0.30;;;15.80;99.90;;;;;;5014048;28;20026;-76
2023/08/06 12:22:25;;;;;;;0.30;0.30;;;15.80;99.90;;;;;;5013689;28;20484;-75
2023/08/06 12:24:51;;;;;;;0.40;0.38;;;15.80;99.90;;;;;;4996303;28;20022;-78
2023/08/06 12:27:18;;;;;;;0.40;0.28;;;15.90;99.90;;;;;;4999098;28;20321;-77
2023/08/06 12:29:45;;;;;;;0.40;0.32;;;15.80;99.90;;;;;;4998094;28;20010;-75
2023/08/06 12:32:12;;;;;;;1.92;0.52;;;15.70;99.90;;;;;;4995311;28;20018;-76
2023/08/06 12:34:39;;;;;;;1.08;0.43;;;15.70;99.90;;;;;;4997791;28;20029;-75
2023/08/06 12:37:05;;;;;;;2.40;0.90;;;15.80;99.90;;;;;;5014564;28;20076;-74
2023/08/06 12:39:32;;;;;;;1.05;0.50;;;15.80;99.90;;;;;;4996456;28;20393;-76
2023/08/06 12:42:02;;;;;;;2.72;0.60;;;15.80;99.90;;;;;;5000562;28;20069;-75
2023/08/06 12:44:28;;;;;;;0.88;0.40;;;15.90;99.90;;;;;;5005236;28;20033;-73